createdAt,value
2023-03-10T00:01:31.158Z,98.49
2023-03-10T00:04:01.020Z,97.96
2023-03-10T00:06:32.945Z,97.75
2023-03-10T00:09:00.265Z,98.46
2023-03-10T00:11:27.873Z,98.43
2023-03-10T00:13:54.654Z,98.27
2023-03-10T00:16:26.077Z,98.19
2023-03-10T00:18:54.234Z,98.33
2023-03-10T00:21:25.330Z,97.57
2023-03-10T00:23:53.338Z,98.45
2023-03-10T00:26:21.511Z,98.86
2023-03-10T00:28:49.168Z,99.63
2023-03-10T00:31:20.855Z,100.00
2023-03-10T00:33:47.793Z,100.00
2023-03-10T00:36:17.198Z,100.00
2023-03-10T00:38:45.636Z,100.00
2023-03-10T00:41:16.354Z,100.00
2023-03-10T00:43:43.963Z,100.00
2023-03-10T00:46:11.470Z,100.00
2023-03-10T00:48:39.080Z,100.00
2023-03-10T00:51:06.625Z,100.00
2023-03-10T00:53:36.162Z,100.00
2023-03-10T00:56:22.424Z,100.00
2023-03-10T00:58:53.795Z,100.00
2023-03-10T01:01:32.749Z,100.00
2023-03-10T01:04:03.955Z,100.00
2023-03-10T01:06:30.724Z,100.00
2023-03-10T01:08:57.550Z,100.00
2023-03-10T01:11:27.171Z,100.00
2023-03-10T01:13:57.664Z,100.00
2023-03-10T01:16:24.876Z,100.00
2023-03-10T01:18:51.838Z,100.00
2023-03-10T01:21:32.234Z,100.00
2023-03-10T01:24:00.430Z,100.00
2023-03-10T01:26:27.383Z,100.00
2023-03-10T01:28:54.292Z,100.00
2023-03-10T01:31:21.929Z,100.00
2023-03-10T01:33:49.074Z,100.00
2023-03-10T01:36:20.611Z,100.00
2023-03-10T01:38:48.656Z,100.00
2023-03-10T01:41:16.345Z,100.00
2023-03-10T01:43:47.043Z,100.00
2023-03-10T01:46:31.794Z,100.00
2023-03-10T01:49:10.607Z,100.00
2023-03-10T01:51:40.112Z,100.00
2023-03-10T01:54:16.879Z,100.00
2023-03-10T01:56:44.826Z,100.00
2023-03-10T01:59:11.729Z,100.00
2023-03-10T02:01:38.638Z,100.00
2023-03-10T02:04:16.929Z,100.00
2023-03-10T02:06:48.057Z,100.00
2023-03-10T02:09:15.992Z,100.00
2023-03-10T02:11:43.317Z,100.00
2023-03-10T02:14:10.132Z,100.00
2023-03-10T02:16:37.013Z,100.00
2023-03-10T02:19:12.479Z,100.00
2023-03-10T02:21:51.768Z,100.00
2023-03-10T02:24:29.971Z,100.00
2023-03-10T02:27:02.540Z,100.00
2023-03-10T02:29:58.504Z,100.00
2023-03-10T02:32:28.103Z,100.00
2023-03-10T02:34:55.018Z,100.00
2023-03-10T02:37:26.700Z,100.00
2023-03-10T02:39:53.458Z,100.00
2023-03-10T02:42:23.121Z,100.00
2023-03-10T02:44:49.896Z,100.00
2023-03-10T02:47:16.874Z,100.00
2023-03-10T02:49:44.212Z,100.00
2023-03-10T02:52:27.360Z,100.00
2023-03-10T02:54:54.020Z,100.00
2023-03-10T02:57:20.801Z,100.00
2023-03-10T02:59:47.572Z,100.00
2023-03-10T03:02:14.305Z,100.00
2023-03-10T03:04:41.058Z,100.00
2023-03-10T03:07:07.824Z,100.00
2023-03-10T03:09:35.390Z,100.00
2023-03-10T03:12:02.315Z,100.00
2023-03-10T03:14:29.044Z,100.00
2023-03-10T03:16:56.026Z,100.00
2023-03-10T03:19:23.011Z,100.00
2023-03-10T03:21:50.212Z,100.00
2023-03-10T03:24:23.357Z,100.00
2023-03-10T03:26:50.459Z,100.00
2023-03-10T03:29:20.380Z,100.00
2023-03-10T03:31:47.246Z,100.00
2023-03-10T03:34:15.633Z,100.00
2023-03-10T03:36:42.416Z,100.00
2023-03-10T03:39:09.322Z,100.00
2023-03-10T03:41:36.076Z,100.00
2023-03-10T03:44:03.527Z,100.00
2023-03-10T03:46:30.417Z,100.00
2023-03-10T03:48:57.230Z,100.00
2023-03-10T03:51:24.028Z,100.00
2023-03-10T03:53:50.822Z,100.00
2023-03-10T03:56:17.575Z,100.00
2023-03-10T03:58:44.425Z,100.00
2023-03-10T04:01:12.962Z,100.00
2023-03-10T04:03:39.903Z,100.00
2023-03-10T04:06:08.189Z,100.00
2023-03-10T04:08:35.124Z,100.00
2023-03-10T04:11:01.863Z,100.00
2023-03-10T04:13:28.600Z,100.00
2023-03-10T04:15:57.746Z,100.00
2023-03-10T04:18:24.975Z,100.00
2023-03-10T04:20:51.879Z,100.00
2023-03-10T04:23:18.604Z,100.00
2023-03-10T04:25:45.414Z,100.00
2023-03-10T04:28:12.265Z,100.00
2023-03-10T04:30:43.489Z,100.00
2023-03-10T04:33:11.312Z,100.00
2023-03-10T04:35:47.622Z,100.00
2023-03-10T04:38:14.952Z,100.00
2023-03-10T04:40:41.694Z,100.00
2023-03-10T04:43:08.470Z,100.00
2023-03-10T04:45:35.221Z,100.00
2023-03-10T04:48:02.050Z,100.00
2023-03-10T04:50:28.955Z,100.00
2023-03-10T04:52:55.900Z,100.00
2023-03-10T04:55:22.665Z,100.00
2023-03-10T04:57:49.508Z,100.00
2023-03-10T05:00:16.628Z,100.00
2023-03-10T05:02:43.508Z,100.00
2023-03-10T05:05:11.339Z,100.00
2023-03-10T05:07:38.382Z,100.00
2023-03-10T05:10:06.299Z,100.00
2023-03-10T05:12:33.498Z,100.00
2023-03-10T05:15:00.250Z,100.00
2023-03-10T05:17:28.527Z,100.00
2023-03-10T05:19:55.330Z,100.00
2023-03-10T05:22:22.224Z,100.00
2023-03-10T05:24:50.054Z,100.00
2023-03-10T05:27:19.838Z,100.00
2023-03-10T05:29:46.691Z,100.00
2023-03-10T05:32:13.476Z,100.00
2023-03-10T05:34:40.278Z,100.00
2023-03-10T05:37:07.060Z,100.00
2023-03-10T05:39:34.222Z,100.00
2023-03-10T05:42:01.414Z,100.00
2023-03-10T05:44:28.194Z,100.00
2023-03-10T05:46:55.121Z,100.00
2023-03-10T05:49:21.929Z,100.00
2023-03-10T05:51:48.743Z,100.00
2023-03-10T05:54:16.822Z,100.00
2023-03-10T05:56:43.567Z,100.00
2023-03-10T05:59:10.479Z,100.00
2023-03-10T06:01:37.486Z,100.00
2023-03-10T06:04:04.655Z,100.00
2023-03-10T06:06:31.538Z,100.00
2023-03-10T06:08:58.416Z,100.00
2023-03-10T06:11:25.562Z,100.00
2023-03-10T06:13:52.638Z,100.00
2023-03-10T06:16:19.805Z,100.00
2023-03-10T06:18:46.677Z,100.00
2023-03-10T06:21:15.228Z,100.00
2023-03-10T06:23:42.021Z,100.00
2023-03-10T06:26:13.713Z,100.00
2023-03-10T06:28:43.342Z,100.00
2023-03-10T06:31:18.686Z,100.00
2023-03-10T06:33:45.482Z,100.00
2023-03-10T06:36:14.016Z,100.00
2023-03-10T06:38:41.768Z,100.00
2023-03-10T06:41:09.398Z,100.00
2023-03-10T06:43:36.700Z,100.00
2023-03-10T06:46:06.685Z,100.00
2023-03-10T06:48:34.455Z,100.00
2023-03-10T06:51:01.593Z,100.00
2023-03-10T06:53:28.429Z,100.00
2023-03-10T06:56:09.612Z,100.00
2023-03-10T06:58:39.122Z,100.00
2023-03-10T07:01:07.707Z,100.00
2023-03-10T07:03:36.306Z,100.00
2023-03-10T07:06:03.155Z,100.00
2023-03-10T07:08:30.397Z,100.00
2023-03-10T07:10:57.429Z,100.00
2023-03-10T07:13:24.692Z,100.00
2023-03-10T07:15:51.448Z,100.00
2023-03-10T07:18:18.311Z,100.00
2023-03-10T07:20:45.952Z,100.00
2023-03-10T07:23:13.729Z,100.00
2023-03-10T07:25:41.692Z,100.00
2023-03-10T07:28:09.333Z,100.00
2023-03-10T07:30:37.848Z,100.00
2023-03-10T07:33:05.022Z,100.00
2023-03-10T07:35:31.851Z,100.00
2023-03-10T07:37:58.668Z,100.00
2023-03-10T07:40:25.701Z,100.00
2023-03-10T07:42:54.862Z,100.00
2023-03-10T07:45:26.758Z,100.00
2023-03-10T07:47:54.695Z,100.00
2023-03-10T07:50:22.427Z,100.00
2023-03-10T07:52:50.655Z,100.00
2023-03-10T07:55:18.254Z,99.17
2023-03-10T07:57:45.061Z,97.39
2023-03-10T08:00:22.344Z,97.00
2023-03-10T08:02:49.118Z,96.88
2023-03-10T08:05:15.986Z,95.86
2023-03-10T08:07:43.660Z,95.94
2023-03-10T08:10:11.535Z,96.85
2023-03-10T08:12:38.299Z,96.80
2023-03-10T08:15:06.750Z,97.02
2023-03-10T08:17:33.795Z,96.91
2023-03-10T08:20:01.176Z,95.92
2023-03-10T08:22:28.625Z,95.97
2023-03-10T08:24:56.326Z,96.72
2023-03-10T08:27:23.485Z,96.01
2023-03-10T08:29:50.407Z,95.47
2023-03-10T08:32:17.594Z,95.25
2023-03-10T08:34:44.726Z,96.15
2023-03-10T08:37:11.879Z,96.05
2023-03-10T08:39:38.985Z,97.00
2023-03-10T08:42:06.816Z,96.78
2023-03-10T08:44:33.746Z,96.02
2023-03-10T08:47:00.732Z,96.12
2023-03-10T08:49:27.625Z,96.56
2023-03-10T08:51:54.419Z,95.47
2023-03-10T08:54:22.597Z,96.11
2023-03-10T08:56:50.246Z,96.11
2023-03-10T08:59:18.328Z,96.18
2023-03-10T09:01:45.692Z,95.60
2023-03-10T09:04:12.792Z,95.89
2023-03-10T09:06:40.112Z,97.34
2023-03-10T09:09:10.046Z,97.84
2023-03-10T09:11:39.390Z,97.65
2023-03-10T09:14:07.693Z,98.25
2023-03-10T09:16:35.009Z,98.49
2023-03-10T09:19:02.866Z,98.24
2023-03-10T09:21:33.556Z,98.91
2023-03-10T09:24:02.080Z,99.33
2023-03-10T09:26:28.922Z,99.02
2023-03-10T09:28:57.083Z,97.60
2023-03-10T09:31:30.317Z,97.47
2023-03-10T09:33:57.180Z,97.04
2023-03-10T09:36:24.299Z,97.69
2023-03-10T09:38:51.030Z,95.33
2023-03-10T09:41:53.211Z,94.55
2023-03-10T09:44:26.589Z,93.75
2023-03-10T09:47:30.604Z,91.76
2023-03-10T09:50:10.517Z,92.68
2023-03-10T09:53:13.009Z,92.39
2023-03-10T09:55:48.476Z,91.44
2023-03-10T09:58:30.785Z,90.95
2023-03-10T10:01:00.119Z,90.81
2023-03-10T10:03:53.018Z,90.63
2023-03-10T10:06:37.234Z,91.75
2023-03-10T10:09:32.965Z,91.38
2023-03-10T10:12:13.008Z,92.13
2023-03-10T10:14:42.702Z,90.62
2023-03-10T10:17:56.683Z,91.96
2023-03-10T10:20:45.855Z,93.88
2023-03-10T10:23:40.367Z,96.10
2023-03-10T10:26:23.157Z,95.79
2023-03-10T10:29:01.425Z,95.98
2023-03-10T10:31:33.794Z,95.60
2023-03-10T10:34:06.418Z,94.92
2023-03-10T10:36:52.148Z,96.91
2023-03-10T10:39:41.219Z,95.90
2023-03-10T10:42:13.805Z,97.21
2023-03-10T10:44:45.003Z,99.91
2023-03-10T10:47:35.546Z,99.38
2023-03-10T10:50:22.894Z,96.02
2023-03-10T10:52:53.887Z,97.91
2023-03-10T10:55:35.141Z,96.74
2023-03-10T10:58:23.957Z,97.72
2023-03-10T11:01:02.086Z,96.34
2023-03-10T11:03:37.061Z,93.12
2023-03-10T11:06:32.339Z,94.07
2023-03-10T11:09:09.108Z,96.41
2023-03-10T11:12:08.204Z,95.94
2023-03-10T11:14:52.619Z,95.32
2023-03-10T11:17:27.349Z,95.64
2023-03-10T11:20:29.520Z,92.47
2023-03-10T11:23:19.446Z,93.26
2023-03-10T11:25:54.119Z,92.39
2023-03-10T11:28:41.235Z,91.60
2023-03-10T11:31:29.031Z,91.38
2023-03-10T11:34:31.038Z,92.90
2023-03-10T11:37:30.078Z,93.87
2023-03-10T11:40:29.468Z,93.52
2023-03-10T11:43:14.628Z,89.92
2023-03-10T11:45:55.641Z,90.76
2023-03-10T11:48:44.865Z,89.22
2023-03-10T11:51:23.745Z,88.01
2023-03-10T11:53:57.206Z,89.30
2023-03-10T11:56:26.062Z,88.79
2023-03-10T11:59:24.430Z,87.27
2023-03-10T12:02:10.798Z,88.73
2023-03-10T12:04:45.420Z,88.95
2023-03-10T12:07:32.233Z,88.32
2023-03-10T12:10:03.585Z,89.00
2023-03-10T12:12:36.433Z,89.64
2023-03-10T12:15:20.521Z,87.91
2023-03-10T12:17:49.405Z,86.10
2023-03-10T12:20:19.042Z,85.47
2023-03-10T12:22:50.416Z,85.26
2023-03-10T12:25:29.105Z,84.87
2023-03-10T12:28:17.303Z,84.72
2023-03-10T12:31:15.454Z,83.32
2023-03-10T12:33:47.416Z,82.28
2023-03-10T12:36:32.820Z,83.84
2023-03-10T12:38:59.674Z,85.51
2023-03-10T12:41:26.356Z,85.03
2023-03-10T12:44:16.132Z,85.11
2023-03-10T12:47:09.030Z,85.82
2023-03-10T12:49:41.672Z,85.21
2023-03-10T12:52:22.651Z,85.29
2023-03-10T12:55:15.368Z,85.22
2023-03-10T12:57:56.411Z,85.91
2023-03-10T13:00:47.551Z,86.58
2023-03-10T13:03:44.009Z,88.00
2023-03-10T13:06:11.078Z,89.37
2023-03-10T13:08:48.279Z,91.00
2023-03-10T13:11:29.944Z,91.73
2023-03-10T13:14:04.385Z,91.30
2023-03-10T13:16:32.975Z,92.90
2023-03-10T13:19:01.485Z,91.24
2023-03-10T13:21:34.863Z,92.34
2023-03-10T13:24:16.822Z,92.80
2023-03-10T13:26:43.564Z,97.16
2023-03-10T13:29:19.705Z,96.26
2023-03-10T13:31:55.725Z,94.66
2023-03-10T13:34:30.247Z,97.82
2023-03-10T13:37:09.965Z,96.66
2023-03-10T13:39:36.772Z,96.63
2023-03-10T13:42:18.740Z,95.43
2023-03-10T13:44:47.586Z,95.42
2023-03-10T13:47:23.638Z,94.40
2023-03-10T13:49:58.106Z,94.49
2023-03-10T13:52:28.041Z,94.59
2023-03-10T13:55:16.569Z,95.18
2023-03-10T13:57:45.923Z,96.48
2023-03-10T14:00:18.849Z,96.17
2023-03-10T14:02:50.227Z,96.27
2023-03-10T14:05:42.272Z,94.76
2023-03-10T14:08:28.762Z,96.53
2023-03-10T14:11:22.493Z,97.62
2023-03-10T14:13:49.422Z,98.84
2023-03-10T14:16:16.312Z,97.67
2023-03-10T14:18:43.972Z,97.30
2023-03-10T14:21:33.602Z,96.08
2023-03-10T14:24:06.001Z,96.47
2023-03-10T14:26:33.500Z,96.46
2023-03-10T14:29:02.963Z,94.93
2023-03-10T14:31:29.789Z,94.83
2023-03-10T14:33:56.545Z,95.20
2023-03-10T14:36:25.121Z,94.87
2023-03-10T14:38:52.016Z,95.20
2023-03-10T14:41:23.860Z,92.89
2023-03-10T14:43:51.656Z,92.39
2023-03-10T14:46:18.565Z,91.91
2023-03-10T14:48:46.113Z,92.53
2023-03-10T14:51:28.936Z,92.34
2023-03-10T14:53:59.541Z,93.45
2023-03-10T14:56:26.311Z,93.74
2023-03-10T14:58:55.267Z,93.52
2023-03-10T15:01:22.516Z,94.22
2023-03-10T15:03:49.510Z,92.92
2023-03-10T15:06:19.665Z,92.21
2023-03-10T15:08:46.728Z,91.52
2023-03-10T15:11:15.908Z,86.79
2023-03-10T15:13:44.292Z,86.72
2023-03-10T15:16:13.826Z,88.79
2023-03-10T15:18:40.953Z,88.20
2023-03-10T15:21:09.027Z,86.50
2023-03-10T15:23:38.584Z,86.78
2023-03-10T15:26:09.749Z,86.15
2023-03-10T15:28:37.542Z,84.59
2023-03-10T15:31:05.364Z,86.09
2023-03-10T15:33:33.158Z,85.61
2023-03-10T15:35:59.916Z,86.16
2023-03-10T15:38:26.653Z,85.34
2023-03-10T15:40:53.381Z,86.52
2023-03-10T15:43:20.147Z,88.65
2023-03-10T15:45:49.266Z,90.74
2023-03-10T15:48:16.908Z,94.94
2023-03-10T15:50:47.142Z,93.06
2023-03-10T15:53:14.694Z,92.90
2023-03-10T15:55:42.279Z,94.52
2023-03-10T15:58:11.214Z,95.08
2023-03-10T16:00:38.159Z,96.44
2023-03-10T16:03:04.928Z,97.47
2023-03-10T16:05:32.309Z,98.97
2023-03-10T16:07:59.096Z,97.07
2023-03-10T16:10:25.845Z,95.11
2023-03-10T16:12:55.540Z,94.83
2023-03-10T16:15:22.291Z,95.42
2023-03-10T16:17:49.083Z,95.39
2023-03-10T16:20:19.108Z,95.15
2023-03-10T16:22:46.019Z,96.02
2023-03-10T16:25:17.960Z,94.83
2023-03-10T16:27:46.126Z,95.71
2023-03-10T16:30:15.700Z,94.23
2023-03-10T16:32:48.052Z,95.96
2023-03-10T16:35:16.251Z,96.91
2023-03-10T16:37:43.474Z,97.48
2023-03-10T16:40:11.689Z,98.32
2023-03-10T16:42:39.019Z,98.52
2023-03-10T16:45:07.045Z,97.75
2023-03-10T16:47:34.002Z,97.03
2023-03-10T16:50:00.799Z,95.35
2023-03-10T16:52:27.612Z,95.17
2023-03-10T16:54:58.342Z,96.10
2023-03-10T16:57:25.108Z,95.77
2023-03-10T16:59:51.916Z,96.71
2023-03-10T17:02:18.656Z,97.35
2023-03-10T17:04:45.979Z,96.94
2023-03-10T17:07:12.728Z,97.83
2023-03-10T17:09:39.630Z,96.97
2023-03-10T17:12:07.105Z,97.06
2023-03-10T17:14:33.906Z,97.59
2023-03-10T17:17:01.568Z,97.09
2023-03-10T17:19:31.085Z,95.54
2023-03-10T17:21:58.552Z,95.72
2023-03-10T17:24:26.727Z,94.89
2023-03-10T17:26:53.737Z,94.62
2023-03-10T17:29:20.554Z,92.42
2023-03-10T17:31:51.754Z,93.46
2023-03-10T17:34:19.736Z,92.95
2023-03-10T17:36:49.904Z,93.69
2023-03-10T17:39:20.468Z,95.53
2023-03-10T17:41:48.059Z,96.02
2023-03-10T17:44:16.147Z,95.10
2023-03-10T17:46:42.905Z,96.47
2023-03-10T17:49:12.716Z,96.19
2023-03-10T17:51:43.618Z,96.15
2023-03-10T17:54:14.371Z,96.10
2023-03-10T17:56:41.287Z,95.56
2023-03-10T17:59:10.937Z,95.39
2023-03-10T18:01:37.684Z,95.69
2023-03-10T18:04:04.577Z,96.08
2023-03-10T18:06:34.562Z,94.50
2023-03-10T18:09:06.395Z,93.18
2023-03-10T18:11:34.948Z,92.38
2023-03-10T18:14:03.660Z,91.76
2023-03-10T18:16:37.919Z,91.06
2023-03-10T18:19:05.807Z,91.00
2023-03-10T18:21:32.691Z,90.81
2023-03-10T18:23:59.491Z,91.91
2023-03-10T18:26:32.039Z,92.30
2023-03-10T18:28:59.807Z,91.97
2023-03-10T18:31:30.027Z,91.65
2023-03-10T18:33:56.920Z,92.89
2023-03-10T18:36:24.855Z,93.98
2023-03-10T18:38:52.574Z,93.19
2023-03-10T18:41:25.769Z,94.00
2023-03-10T18:43:53.611Z,94.00
2023-03-10T18:46:21.331Z,93.50
2023-03-10T18:48:48.805Z,94.17
2023-03-10T18:51:15.978Z,94.66
2023-03-10T18:53:42.806Z,94.38
2023-03-10T18:56:10.374Z,95.26
2023-03-10T18:58:37.463Z,94.59
2023-03-10T19:01:11.293Z,95.21
2023-03-10T19:03:38.668Z,95.04
2023-03-10T19:06:06.620Z,94.81
2023-03-10T19:08:36.455Z,96.30
2023-03-10T19:11:05.162Z,95.96
2023-03-10T19:13:31.934Z,95.21
2023-03-10T19:15:58.977Z,94.73
2023-03-10T19:18:25.721Z,95.92
2023-03-10T19:20:59.866Z,95.38
2023-03-10T19:23:28.094Z,95.60
2023-03-10T19:25:55.890Z,95.34
2023-03-10T19:28:22.706Z,95.70
2023-03-10T19:30:49.430Z,95.66
2023-03-10T19:33:16.240Z,97.95
2023-03-10T19:35:42.988Z,96.54
2023-03-10T19:38:10.097Z,95.73
2023-03-10T19:40:37.345Z,93.00
2023-03-10T19:43:04.498Z,91.29
2023-03-10T19:45:31.423Z,92.38
2023-03-10T19:47:58.785Z,90.49
2023-03-10T19:50:26.271Z,89.73
2023-03-10T19:52:53.177Z,90.22
2023-03-10T19:55:23.941Z,92.62
2023-03-10T19:57:54.070Z,93.58
2023-03-10T20:00:31.268Z,93.65
2023-03-10T20:02:58.622Z,93.37
2023-03-10T20:05:27.001Z,93.08
2023-03-10T20:07:54.172Z,92.16
2023-03-10T20:10:20.950Z,92.42
2023-03-10T20:12:47.817Z,91.53
2023-03-10T20:15:15.002Z,90.63
2023-03-10T20:17:41.743Z,88.80
2023-03-10T20:20:15.075Z,87.51
2023-03-10T20:22:45.518Z,85.98
2023-03-10T20:25:15.774Z,85.26
2023-03-10T20:27:43.244Z,85.42
2023-03-10T20:30:16.586Z,83.96
2023-03-10T20:32:44.276Z,84.74
2023-03-10T20:35:12.594Z,83.23
2023-03-10T20:37:41.804Z,82.16
2023-03-10T20:40:15.263Z,83.31
2023-03-10T20:42:43.014Z,82.30
2023-03-10T20:45:10.815Z,83.05
2023-03-10T20:47:38.331Z,81.73
2023-03-10T20:50:11.253Z,82.59
2023-03-10T20:52:39.282Z,79.75
2023-03-10T20:55:09.406Z,80.17
2023-03-10T20:57:36.153Z,82.58
2023-03-10T21:00:06.176Z,78.16
2023-03-10T21:02:32.945Z,80.85
2023-03-10T21:04:59.730Z,77.98
2023-03-10T21:07:26.511Z,77.20
2023-03-10T21:09:53.329Z,78.46
2023-03-10T21:12:21.225Z,78.77
2023-03-10T21:14:48.060Z,77.50
2023-03-10T21:17:14.829Z,79.14
2023-03-10T21:19:41.636Z,79.93
2023-03-10T21:22:08.477Z,80.54
2023-03-10T21:24:35.208Z,79.43
2023-03-10T21:27:01.941Z,82.09
2023-03-10T21:29:28.744Z,82.30
2023-03-10T21:31:55.508Z,83.32
2023-03-10T21:34:22.362Z,80.99
2023-03-10T21:36:49.088Z,83.77
2023-03-10T21:39:15.893Z,85.27
2023-03-10T21:41:42.767Z,86.54
2023-03-10T21:44:11.440Z,87.74
2023-03-10T21:46:38.311Z,87.96
2023-03-10T21:49:05.126Z,84.36
2023-03-10T21:51:34.732Z,84.26
2023-03-10T21:54:03.408Z,85.07
2023-03-10T21:56:30.257Z,83.46
2023-03-10T21:58:57.589Z,83.65
2023-03-10T22:01:24.876Z,82.42
2023-03-10T22:03:51.730Z,83.24
2023-03-10T22:06:18.469Z,84.08
2023-03-10T22:08:45.443Z,82.30
2023-03-10T22:11:13.517Z,83.40
2023-03-10T22:13:40.929Z,83.37
2023-03-10T22:16:10.860Z,82.44
2023-03-10T22:18:38.113Z,82.43
2023-03-10T22:21:05.472Z,82.62
2023-03-10T22:23:32.285Z,83.19
2023-03-10T22:25:59.085Z,82.56
2023-03-10T22:28:25.792Z,83.57
2023-03-10T22:30:52.661Z,83.17
2023-03-10T22:33:19.487Z,83.78
2023-03-10T22:35:51.999Z,83.03
2023-03-10T22:38:20.392Z,84.52
2023-03-10T22:40:47.933Z,84.60
2023-03-10T22:43:15.046Z,82.96
2023-03-10T22:45:42.008Z,83.41
2023-03-10T22:48:08.990Z,84.50
2023-03-10T22:50:43.682Z,82.45
2023-03-10T22:53:17.665Z,81.88
2023-03-10T22:55:46.568Z,82.21
2023-03-10T22:58:14.437Z,81.75
2023-03-10T23:00:42.551Z,81.51
2023-03-10T23:03:14.261Z,80.85
2023-03-10T23:05:41.720Z,79.87
2023-03-10T23:08:08.879Z,82.07
2023-03-10T23:10:37.452Z,81.14
2023-03-10T23:13:12.639Z,80.14
2023-03-10T23:15:39.772Z,80.42
2023-03-10T23:18:07.612Z,80.13
2023-03-10T23:20:41.943Z,81.77
2023-03-10T23:23:12.152Z,80.36
2023-03-10T23:25:47.237Z,80.66
2023-03-10T23:28:15.668Z,78.71
2023-03-10T23:30:44.966Z,80.33
2023-03-10T23:33:18.648Z,79.02
2023-03-10T23:35:54.142Z,78.66
2023-03-10T23:38:23.941Z,79.57
2023-03-10T23:40:51.918Z,78.42
2023-03-10T23:43:19.344Z,78.50
2023-03-10T23:45:46.225Z,78.76
2023-03-10T23:48:19.212Z,80.43
2023-03-10T23:50:48.722Z,79.84
2023-03-10T23:53:17.700Z,78.29
2023-03-10T23:55:46.853Z,76.55
2023-03-10T23:58:15.852Z,76.68
